Terminal Aerodrome Forecast
Issued by NWS Bismarck, ND

Home | Current Version | Previous Version | Text Only | Print | Product List | Glossary Off
Versions: 1 2 3 4 5 6 7 8 9 10 11 12 13 14 15 16 17 18 19 20 21 22 23 24

000
FTUS43 KBIS 101131
TAFISN
TAF
KISN 101131Z 1012/1112 28007KT P6SM SCT200
     FM101800 27010KT P6SM SCT200
     FM110200 28012KT P6SM FEW250
     FM110500 30019G29KT P6SM BKN040
     FM110700 31021G32KT P6SM BKN018=

USA.gov is the U.S. government's official web portal to all federal, state and local government web resources and services.